Time;durP1;ratioP1;P1;durP2;ratioP2;P2;SDS_P1;SDS_P2;PMS_P1;PMS_P2;Temp;Humidity;BMP_temperature;BMP_pressure;BME280_temperature;BME280_humidity;BME280_pressure;Samples;Min_cycle;Max_cycle;Signal;HPM_P1;HPM_P2
2022/12/06 00:01:33;;;;;;;14.70;11.17;;;3.60;99.90;;;-141.84;88.70;18316.28;4992980;28;20241;-67
2022/12/06 00:04:05;;;;;;;15.50;11.17;;;3.60;99.90;;;-141.84;88.59;18322.38;4992815;28;20229;-66
2022/12/06 00:06:39;;;;;;;15.00;11.20;;;3.50;99.90;;;-141.84;88.76;18302.06;4992918;28;20241;-66
2022/12/06 00:09:15;;;;;;;13.93;10.73;;;3.50;99.90;;;-141.84;88.95;18295.97;4992934;28;20214;-65
2022/12/06 00:11:43;;;;;;;14.97;11.43;;;3.50;99.90;;;-141.84;88.86;18338.63;5012607;28;20217;-65
2022/12/06 00:14:12;;;;;;;14.63;10.83;;;3.50;99.90;;;-141.84;89.04;18322.38;5011800;28;20705;-66
2022/12/06 00:16:41;;;;;;;13.97;11.00;;;3.50;99.90;;;-141.84;89.05;18308.16;5012123;28;20606;-65
2022/12/06 00:19:12;;;;;;;14.33;10.63;;;3.60;99.90;;;-141.84;89.11;18318.31;5012045;28;20309;-66
2022/12/06 00:21:41;;;;;;;12.63;10.87;;;3.50;99.90;;;-141.84;88.74;18310.19;5012074;28;20307;-65
2022/12/06 00:24:14;;;;;;;13.70;10.80;;;3.50;99.90;;;-141.84;88.64;18330.50;5011990;28;20673;-65
2022/12/06 00:26:45;;;;;;;13.70;10.50;;;3.50;99.90;;;-141.84;88.53;18330.50;5011474;28;20237;-66
2022/12/06 00:29:16;;;;;;;12.93;10.47;;;3.50;99.90;;;-141.84;88.57;18312.22;5011566;28;20229;-65
2022/12/06 00:31:44;;;;;;;12.83;10.50;;;3.60;99.90;;;-141.84;88.59;18320.34;5011901;28;20236;-67
2022/12/06 00:34:13;;;;;;;14.10;9.87;;;3.50;99.90;;;-141.84;88.89;18318.31;5011706;28;20241;-66
2022/12/06 00:36:42;;;;;;;14.00;10.57;;;3.60;99.90;;;-141.84;88.88;18316.28;5011356;28;20645;-66
2022/12/06 00:39:14;;;;;;;12.90;10.53;;;3.50;99.90;;;-141.84;88.95;18371.13;5011855;28;20264;-67
2022/12/06 00:41:43;;;;;;;14.83;11.10;;;3.60;99.90;;;-141.84;88.53;18322.38;5012004;28;20210;-66
2022/12/06 00:44:12;;;;;;;14.07;10.83;;;3.60;99.90;;;-141.84;88.45;18346.75;5011146;28;20230;-65
2022/12/06 00:46:41;;;;;;;14.17;11.07;;;3.60;99.90;;;-141.84;88.58;18350.81;5011546;28;20242;-67
2022/12/06 00:49:10;;;;;;;12.23;9.77;;;3.60;99.90;;;-141.84;88.75;18306.13;5011497;28;20234;-65
2022/12/06 00:51:39;;;;;;;12.20;9.63;;;3.60;99.90;;;-141.84;88.91;18298.00;5011518;28;20222;-65
2022/12/06 00:54:11;;;;;;;13.20;10.17;;;3.60;99.90;;;-141.84;88.68;18308.16;5012206;28;20248;-65
2022/12/06 00:56:41;;;;;;;11.83;9.93;;;3.60;99.90;;;-141.84;88.54;18348.78;5012012;28;20233;-66
2022/12/06 00:59:10;;;;;;;14.27;9.93;;;3.60;99.90;;;-141.84;88.59;18322.38;5011173;28;20683;-65
2022/12/06 01:01:39;;;;;;;12.10;8.97;;;3.60;99.90;;;-141.84;88.59;18342.69;5011531;28;20252;-65
2022/12/06 01:04:08;;;;;;;12.00;9.60;;;3.60;99.90;;;-141.84;88.81;18314.25;5011361;28;20226;-66
2022/12/06 01:06:37;;;;;;;14.10;10.10;;;3.50;99.90;;;-141.84;88.60;18334.56;5011576;28;20237;-66
2022/12/06 01:09:13;;;;;;;12.03;9.90;;;3.50;99.90;;;-141.84;88.76;18316.28;5011905;28;20243;-65
2022/12/06 01:11:43;;;;;;;13.23;10.13;;;3.60;99.90;;;-141.84;88.61;18314.25;5011742;28;20219;-66
2022/12/06 01:14:11;;;;;;;12.43;9.93;;;3.60;99.90;;;-141.84;88.56;18348.78;5011419;28;20244;-66
2022/12/06 01:16:39;;;;;;;15.07;10.70;;;3.60;99.90;;;-141.84;88.39;18320.34;4999617;28;20234;-65
2022/12/06 01:19:07;;;;;;;12.67;10.40;;;3.60;99.90;;;-141.84;88.46;18330.50;4991968;28;20252;-66
2022/12/06 01:21:36;;;;;;;13.47;10.97;;;3.50;99.90;;;-141.84;88.13;18346.75;4991713;28;20234;-65
2022/12/06 01:24:05;;;;;;;13.83;11.17;;;3.60;99.90;;;-141.84;87.80;18314.25;4992178;28;20206;-65
2022/12/06 01:26:35;;;;;;;13.80;11.67;;;3.50;99.90;;;-141.84;87.58;18350.81;4991443;28;20261;-64
2022/12/06 01:29:05;;;;;;;14.30;11.73;;;3.60;99.90;;;-141.84;87.37;18314.25;4991498;28;20262;-65
2022/12/06 01:31:34;;;;;;;12.57;10.53;;;3.50;99.90;;;-141.84;87.56;18324.41;4991235;28;20227;-66
2022/12/06 01:34:07;;;;;;;12.60;10.23;;;3.50;99.90;;;-141.84;87.58;18308.16;4991436;28;20683;-65
2022/12/06 01:36:36;;;;;;;12.83;10.70;;;3.50;99.90;;;-141.84;87.84;18330.50;4991311;28;20278;-66
2022/12/06 01:39:09;;;;;;;12.50;10.37;;;3.50;99.90;;;-141.84;87.56;18346.75;4991579;28;20655;-65
2022/12/06 01:41:38;;;;;;;12.80;9.90;;;3.50;99.90;;;-141.84;87.22;18342.69;4991110;28;20230;-66
2022/12/06 01:44:43;;;;;;;11.07;9.30;;;3.50;99.90;;;-141.84;87.41;18356.91;4979711;28;20765;-67
2022/12/06 01:47:18;;;;;;;12.23;9.97;;;3.50;99.90;;;-141.84;87.49;18314.25;4993500;28;20229;-65
2022/12/06 01:49:56;;;;;;;12.70;9.87;;;3.50;99.90;;;-141.84;87.40;18340.66;4998315;28;20246;-66
2022/12/06 01:52:31;;;;;;;12.83;9.77;;;3.50;99.90;;;-141.84;87.63;18300.03;4991013;28;20222;-65
2022/12/06 01:55:01;;;;;;;12.13;9.57;;;3.50;99.90;;;-141.84;87.61;18310.19;4991447;28;20229;-66
2022/12/06 01:57:30;;;;;;;13.57;10.50;;;3.50;99.90;;;-141.84;87.80;18310.19;4991712;28;20214;-65
2022/12/06 02:00:00;;;;;;;11.73;10.30;;;3.50;99.90;;;-141.84;87.74;18334.56;4991798;28;20207;-65
2022/12/06 02:02:29;;;;;;;13.20;10.30;;;3.50;99.90;;;-141.84;87.78;18340.66;4991201;28;20227;-65
2022/12/06 02:05:00;;;;;;;13.20;10.07;;;3.50;99.90;;;-141.84;87.94;18326.44;4991224;28;20268;-65
2022/12/06 02:07:31;;;;;;;14.47;10.90;;;3.50;99.90;;;-141.84;87.84;18334.56;4991072;28;20237;-66
2022/12/06 02:10:01;;;;;;;12.90;9.73;;;3.50;99.90;;;-141.84;87.18;18322.38;4991323;28;20231;-65
2022/12/06 02:12:29;;;;;;;12.00;9.87;;;3.50;99.90;;;-141.84;87.25;18348.78;4991516;28;20215;-65
2022/12/06 02:14:59;;;;;;;13.00;10.83;;;3.50;99.90;;;-141.84;87.12;18379.25;4991966;28;20211;-66
2022/12/06 02:17:44;;;;;;;13.07;10.93;;;3.50;99.90;;;-141.84;87.28;18332.53;4993427;28;20230;-65
2022/12/06 02:20:31;;;;;;;12.13;10.13;;;3.60;99.90;;;-141.84;87.27;18354.88;4994782;28;20297;-66
2022/12/06 02:23:52;;;;;;;13.90;10.97;;;3.60;99.90;;;-141.84;87.51;18316.28;4994495;28;20227;-66
2022/12/06 02:26:38;;;;;;;13.83;11.33;;;3.50;99.90;;;-141.84;87.52;18371.13;4994457;28;20285;-66
2022/12/06 02:30:06;;;;;;;13.23;10.53;;;3.50;99.90;;;-141.84;87.40;18344.72;4994441;28;20229;-66
2022/12/06 02:32:47;;;;;;;12.73;9.70;;;3.50;99.90;;;-141.84;87.46;18314.25;4989178;28;20245;-65
2022/12/06 02:35:33;;;;;;;13.70;10.03;;;3.50;99.90;;;-141.84;87.58;18326.44;5011645;28;20288;-65
2022/12/06 02:38:09;;;;;;;12.70;10.27;;;3.50;99.90;;;-141.84;87.57;18320.34;5013575;28;20226;-65
2022/12/06 02:40:48;;;;;;;13.60;10.20;;;3.50;99.90;;;-141.84;87.42;18336.59;5013759;28;20325;-66
2022/12/06 02:43:21;;;;;;;12.87;10.50;;;3.50;99.90;;;-141.84;87.03;18316.28;5008023;28;20311;-66
2022/12/06 02:45:56;;;;;;;12.37;9.77;;;3.50;99.90;;;-141.84;86.92;18338.63;4998516;28;20263;-65
2022/12/06 02:48:27;;;;;;;13.20;10.63;;;3.50;99.90;;;-141.84;86.59;18342.69;4998182;28;20748;-67
2022/12/06 02:51:01;;;;;;;15.70;9.93;;;3.50;99.90;;;-141.84;85.82;18344.72;5014209;28;20227;-65
2022/12/06 02:53:34;;;;;;;13.43;10.27;;;3.50;99.90;;;-141.84;85.68;18360.97;5013748;28;20229;-66
2022/12/06 02:56:03;;;;;;;13.33;9.77;;;3.50;99.90;;;-141.84;85.77;18360.97;5013482;28;20226;-65
2022/12/06 02:58:35;;;;;;;13.87;10.13;;;3.50;99.90;;;-141.84;86.22;18365.03;5013558;28;20866;-65
2022/12/06 03:01:09;;;;;;;11.87;9.40;;;3.40;99.90;;;-141.84;86.50;18354.88;5013587;28;20230;-65
2022/12/06 03:04:15;;;;;;;11.07;9.23;;;3.40;99.90;;;-141.84;86.77;18330.50;5013836;28;20276;-66
2022/12/06 03:07:12;;;;;;;12.70;9.70;;;3.50;99.90;;;-141.84;86.89;18350.81;5013378;28;20661;-66
2022/12/06 03:09:58;;;;;;;15.57;10.47;;;3.50;99.90;;;-141.84;86.73;18356.91;5013392;28;20237;-65
2022/12/06 03:12:36;;;;;;;12.27;9.97;;;3.50;99.90;;;-141.84;86.62;18348.78;5013657;28;20282;-65
2022/12/06 03:15:13;;;;;;;12.43;10.00;;;3.50;99.90;;;-141.84;86.42;18379.25;5013826;28;20276;-64
2022/12/06 03:17:50;;;;;;;12.53;9.90;;;3.40;99.90;;;-141.84;86.40;18360.97;5013499;28;20258;-66
2022/12/06 03:20:28;;;;;;;12.33;9.13;;;3.40;99.90;;;-141.84;86.58;18348.78;4996743;28;20227;-67
2022/12/06 03:23:04;;;;;;;12.20;10.07;;;3.40;99.90;;;-141.84;86.50;18354.88;4993437;28;20317;-67
2022/12/06 03:25:35;;;;;;;13.37;10.30;;;3.40;99.90;;;-141.84;86.13;18338.63;4993607;28;20230;-65
2022/12/06 03:28:06;;;;;;;12.07;10.07;;;3.40;99.90;;;-141.84;86.01;18365.03;4992053;28;20277;-65
2022/12/06 03:30:35;;;;;;;13.30;10.13;;;3.40;99.90;;;-141.84;86.23;18371.13;4993418;28;20250;-66
2022/12/06 03:33:04;;;;;;;12.23;10.07;;;3.40;99.90;;;-141.84;85.83;18383.31;4994100;28;20202;-66
2022/12/06 03:35:36;;;;;;;13.40;9.87;;;3.40;99.90;;;-141.84;86.09;18393.47;4993506;28;20332;-66
2022/12/06 03:38:11;;;;;;;13.03;10.40;;;3.40;99.90;;;-141.84;86.47;18373.16;4993040;28;20314;-66
2022/12/06 03:40:47;;;;;;;12.97;10.27;;;3.30;99.90;;;-141.84;86.71;18334.56;4993534;28;20672;-66
2022/12/06 03:43:16;;;;;;;12.50;10.60;;;3.40;99.90;;;-141.84;87.00;18316.28;4988193;28;20733;-65
2022/12/06 03:45:55;;;;;;;12.67;9.73;;;3.40;99.90;;;-141.84;87.08;18342.69;4977140;28;20278;-67
2022/12/06 03:48:31;;;;;;;11.90;9.53;;;3.40;99.90;;;-141.84;86.79;18350.81;5006964;28;20357;-65
2022/12/06 03:51:06;;;;;;;11.80;9.37;;;3.40;99.90;;;-141.84;85.90;18348.78;4993405;28;20226;-66
2022/12/06 03:53:35;;;;;;;13.20;9.73;;;3.40;99.90;;;-141.84;85.80;18322.38;4992789;28;20230;-66
2022/12/06 03:56:03;;;;;;;11.83;10.27;;;3.40;99.90;;;-141.84;84.87;18373.16;4993034;28;20710;-66
2022/12/06 03:58:31;;;;;;;12.10;9.77;;;3.40;99.90;;;-141.84;85.20;18375.19;4992862;28;20826;-65
2022/12/06 04:01:03;;;;;;;11.43;9.37;;;3.40;99.90;;;-141.84;85.77;18373.16;4992760;28;20226;-66
2022/12/06 04:03:31;;;;;;;12.27;10.03;;;3.30;99.90;;;-141.84;85.95;18344.72;4992900;28;20202;-65
2022/12/06 04:06:03;;;;;;;13.17;10.40;;;3.30;99.90;;;-141.84;86.45;18340.66;4993039;28;20242;-65
2022/12/06 04:08:32;;;;;;;12.53;10.20;;;3.30;99.90;;;-141.84;86.73;18348.78;4992494;28;20234;-66
2022/12/06 04:11:00;;;;;;;12.17;9.63;;;3.30;99.90;;;-141.84;86.81;18340.66;4992586;28;20590;-66
2022/12/06 04:13:29;;;;;;;12.03;10.27;;;3.30;99.90;;;-141.84;86.84;18342.69;4990806;28;20224;-65
2022/12/06 04:16:00;;;;;;;13.50;10.13;;;3.30;99.90;;;-141.84;86.87;18360.97;4992127;28;20231;-65
2022/12/06 04:18:28;;;;;;;11.73;9.63;;;3.30;99.90;;;-141.84;86.96;18334.56;4992605;28;20197;-66
2022/12/06 04:23:51;;;;;;;13.77;10.47;;;3.30;99.90;;;-141.84;87.12;18358.94;5012349;28;20210;-66
2022/12/06 04:26:22;;;;;;;12.67;9.57;;;3.20;99.90;;;-141.84;86.71;18350.81;5012118;28;20238;-67
2022/12/06 04:39:58;;;;;;;14.77;10.70;;;3.20;99.90;;;-141.84;87.12;18352.84;5011506;28;20229;-66
2022/12/06 04:45:12;;;;;;;12.47;9.63;;;3.20;99.90;;;-141.84;87.61;18360.97;5012344;28;20187;-65
2022/12/06 04:47:40;;;;;;;13.37;9.87;;;3.30;99.90;;;-141.84;87.28;18338.63;5011684;28;20233;-65
2022/12/06 04:50:09;;;;;;;13.50;10.33;;;3.30;99.90;;;-141.84;86.98;18350.81;5011653;28;20569;-65
2022/12/06 04:52:37;;;;;;;12.57;10.30;;;3.30;99.90;;;-141.84;87.21;18346.75;5011466;28;20237;-65
2022/12/06 04:55:08;;;;;;;13.37;11.20;;;3.20;99.90;;;-141.84;87.56;18310.19;5011443;28;20284;-65
2022/12/06 04:57:36;;;;;;;14.20;11.57;;;3.20;99.90;;;-141.84;87.24;18330.50;5011618;28;20230;-65
2022/12/06 05:00:06;;;;;;;15.10;11.80;;;3.30;99.90;;;-141.84;87.42;18334.56;5011862;28;20230;-66
2022/12/06 05:02:34;;;;;;;13.33;10.73;;;3.20;99.90;;;-141.84;87.58;18338.63;5011561;28;20237;-65
2022/12/06 05:05:02;;;;;;;13.43;11.33;;;3.20;99.90;;;-141.84;87.76;18356.91;5011379;28;20232;-65
2022/12/06 05:07:30;;;;;;;14.33;11.10;;;3.20;99.90;;;-141.84;87.76;18310.19;5000926;28;20230;-66
2022/12/06 05:09:59;;;;;;;11.97;10.37;;;3.20;99.90;;;-141.84;87.56;18318.31;4991636;28;20288;-65
2022/12/06 05:12:29;;;;;;;13.23;10.10;;;3.30;99.90;;;-141.84;87.40;18377.22;4991771;28;20261;-65
2022/12/06 05:14:57;;;;;;;13.40;10.17;;;3.30;99.90;;;-141.84;86.59;18373.16;4991817;28;20673;-65
2022/12/06 05:17:25;;;;;;;11.93;9.23;;;3.30;99.90;;;-141.84;86.38;18342.69;4991594;28;20227;-64
2022/12/06 05:19:53;;;;;;;13.33;10.00;;;3.20;99.90;;;-141.84;86.25;18334.56;4991754;28;20234;-65
2022/12/06 05:22:21;;;;;;;12.57;9.83;;;3.20;99.90;;;-141.84;86.35;18363.00;5000561;28;20719;-65
2022/12/06 05:24:50;;;;;;;12.50;9.90;;;3.20;99.90;;;-141.84;86.56;18363.00;5011201;28;20226;-65
2022/12/06 05:27:18;;;;;;;12.53;9.83;;;3.20;99.90;;;-141.84;86.54;18344.72;5011355;28;20209;-66
2022/12/06 05:29:48;;;;;;;13.17;9.87;;;3.20;99.90;;;-141.84;86.41;18360.97;5011527;28;20214;-65
2022/12/06 05:32:16;;;;;;;12.27;9.73;;;3.20;99.90;;;-141.84;86.26;18381.28;5010991;28;20251;-66
2022/12/06 05:34:44;;;;;;;13.53;9.87;;;3.20;99.90;;;-141.84;86.73;18340.66;5010930;28;20238;-66
2022/12/06 05:37:12;;;;;;;11.73;9.43;;;3.20;99.90;;;-141.84;86.98;18363.00;5010877;28;20233;-65
2022/12/06 05:39:40;;;;;;;13.17;10.00;;;3.10;99.90;;;-141.84;86.54;18352.84;5010913;28;20640;-64
2022/12/06 05:42:09;;;;;;;12.93;9.60;;;3.20;99.90;;;-141.84;86.36;18342.69;5011668;28;20220;-65
2022/12/06 05:44:37;;;;;;;12.30;9.03;;;3.20;99.90;;;-141.84;85.98;18352.84;4994664;28;20326;-66
2022/12/06 05:47:07;;;;;;;13.63;9.73;;;3.20;99.90;;;-141.84;85.19;18358.94;5000577;28;20215;-65
2022/12/06 05:49:35;;;;;;;13.70;9.80;;;3.20;99.90;;;-141.84;85.40;18365.03;5002037;28;20234;-65
2022/12/06 05:52:03;;;;;;;14.83;9.47;;;3.20;99.90;;;-141.84;85.50;18367.06;5012937;28;20245;-66
2022/12/06 05:54:31;;;;;;;13.50;10.07;;;3.20;99.90;;;-141.84;85.67;18383.31;5014810;28;20210;-65
2022/12/06 05:56:59;;;;;;;13.93;10.37;;;3.20;99.90;;;-141.84;86.13;18371.13;5015539;28;20203;-65
2022/12/06 05:59:27;;;;;;;14.27;9.67;;;3.20;99.90;;;-141.84;86.40;18358.94;5014698;28;20240;-66
2022/12/06 06:01:55;;;;;;;12.40;9.67;;;3.20;99.90;;;-141.84;86.22;18367.06;5014685;28;20272;-65
2022/12/06 06:04:25;;;;;;;14.87;10.30;;;3.20;99.90;;;-141.84;86.56;18358.94;5014591;28;20265;-66
2022/12/06 06:06:53;;;;;;;16.67;10.77;;;3.20;99.90;;;-141.84;86.72;18342.69;5014460;28;20236;-66
2022/12/06 06:09:22;;;;;;;14.27;10.20;;;3.20;99.90;;;-141.84;86.63;18320.34;5014395;28;20260;-65
2022/12/06 06:11:50;;;;;;;15.63;10.33;;;3.20;99.90;;;-141.84;86.21;18328.47;5015096;28;20275;-65
2022/12/06 06:14:18;;;;;;;16.43;10.67;;;3.20;99.90;;;-141.84;85.62;18375.19;5014388;28;20241;-66
2022/12/06 06:16:46;;;;;;;15.30;10.07;;;3.20;99.90;;;-141.84;85.91;18379.25;5001910;28;20249;-66
2022/12/06 06:19:14;;;;;;;14.17;10.03;;;3.20;99.90;;;-141.84;86.42;18373.16;5003126;28;20260;-64
2022/12/06 06:21:44;;;;;;;15.37;10.07;;;3.20;99.90;;;-141.84;86.60;18342.69;5014168;28;20775;-65
2022/12/06 06:24:12;;;;;;;16.00;9.87;;;3.10;99.90;;;-141.84;86.80;18330.50;5014566;28;20206;-65
2022/12/06 06:26:40;;;;;;;15.23;10.70;;;3.20;99.90;;;-141.84;86.62;18324.41;5014486;28;20222;-65
2022/12/06 06:29:08;;;;;;;13.63;10.27;;;3.20;99.90;;;-141.84;86.92;18350.81;5013814;28;20652;-64
2022/12/06 06:31:36;;;;;;;16.03;10.40;;;3.20;99.90;;;-141.84;86.62;18318.31;5014234;28;20233;-65
2022/12/06 06:34:05;;;;;;;15.40;10.40;;;3.20;99.90;;;-141.84;86.71;18360.97;5014445;28;20260;-65
2022/12/06 06:36:33;;;;;;;15.17;10.50;;;3.30;99.90;;;-141.84;86.58;18371.13;5014144;28;20202;-64
2022/12/06 06:39:02;;;;;;;13.80;9.90;;;3.20;99.90;;;-141.84;86.85;18354.88;5013920;28;20210;-64
2022/12/06 06:41:30;;;;;;;15.33;10.60;;;3.20;99.90;;;-141.84;86.74;18346.75;5013806;28;20229;-63
2022/12/06 06:43:59;;;;;;;15.40;10.07;;;3.20;99.90;;;-141.84;86.82;18344.72;5002553;28;20231;-63
2022/12/06 06:46:27;;;;;;;13.53;9.70;;;3.20;99.90;;;-141.84;87.08;18300.03;5003056;28;20234;-64
2022/12/06 06:48:55;;;;;;;15.67;10.07;;;3.20;99.90;;;-141.84;86.66;18371.13;4999399;28;20230;-63
2022/12/06 06:51:23;;;;;;;15.50;10.23;;;3.10;99.90;;;-141.84;86.01;18326.44;5013734;28;20314;-64
2022/12/06 06:53:52;;;;;;;14.87;9.10;;;3.20;99.90;;;-141.84;85.75;18328.47;5014228;28;20205;-62
2022/12/06 06:56:21;;;;;;;14.50;9.50;;;3.20;99.90;;;-141.84;85.82;18356.91;5013579;28;20241;-63
2022/12/06 06:58:50;;;;;;;13.13;8.93;;;3.20;99.90;;;-141.84;86.29;18336.59;5013286;28;20226;-62
2022/12/06 07:01:21;;;;;;;14.50;9.90;;;3.10;99.90;;;-141.84;85.84;18358.94;5005260;28;20298;-64
2022/12/06 07:03:50;;;;;;;14.20;9.73;;;3.20;99.90;;;-141.84;86.09;18322.38;4993641;28;20653;-63
2022/12/06 07:06:19;;;;;;;14.53;9.90;;;3.20;99.90;;;-141.84;86.44;18342.69;4993791;28;20215;-63
2022/12/06 07:08:47;;;;;;;15.40;9.83;;;3.20;99.90;;;-141.84;86.05;18354.88;4993910;28;20291;-63
2022/12/06 07:11:16;;;;;;;14.70;8.87;;;3.10;99.90;;;-141.84;85.99;18346.75;4993472;28;20242;-63
2022/12/06 07:13:45;;;;;;;15.00;8.77;;;3.10;99.90;;;-141.84;85.42;18385.34;4990653;28;20292;-62
2022/12/06 07:16:19;;;;;;;12.67;9.23;;;3.10;99.90;;;-141.84;85.40;18367.06;4993471;28;20233;-63
2022/12/06 07:18:47;;;;;;;16.67;9.67;;;3.10;99.90;;;-141.84;85.49;18373.16;4993346;28;20236;-63
2022/12/06 07:21:17;;;;;;;13.80;9.63;;;3.10;99.90;;;-141.84;85.63;18375.19;4992744;28;20195;-65
2022/12/06 07:23:45;;;;;;;15.00;9.57;;;3.10;99.90;;;-141.84;85.10;18346.75;4990725;28;20206;-63
2022/12/06 07:26:17;;;;;;;13.53;9.03;;;3.10;99.90;;;-141.84;84.10;18379.25;4992908;28;20707;-63
2022/12/06 07:28:49;;;;;;;12.30;9.57;;;3.10;99.90;;;-141.84;84.43;18373.16;4993106;28;20604;-63
2022/12/06 07:31:20;;;;;;;12.63;9.60;;;3.10;99.90;;;-141.84;85.07;18352.84;4993131;28;20243;-62
2022/12/06 07:33:52;;;;;;;12.60;8.40;;;3.10;99.90;;;-141.84;84.77;18381.28;4993241;28;20277;-63
2022/12/06 07:36:21;;;;;;;12.53;8.80;;;3.10;99.90;;;-141.84;84.94;18367.06;4993303;28;20238;-63
2022/12/06 07:38:52;;;;;;;12.20;8.50;;;3.10;99.90;;;-141.84;85.07;18375.19;4993136;28;20202;-62
2022/12/06 07:46:58;;;;;;;13.10;8.80;;;3.10;99.90;;;-141.84;83.57;18397.53;4991044;28;20223;-64
2022/12/06 07:49:28;;;;;;;12.13;8.63;;;3.20;99.90;;;-141.84;83.38;18403.63;4993107;28;20239;-64
2022/12/06 07:51:57;;;;;;;12.80;8.97;;;3.20;99.90;;;-141.84;83.81;18381.28;4993268;28;20238;-62
2022/12/06 07:54:25;;;;;;;10.87;8.63;;;3.20;99.90;;;-141.84;82.33;18391.44;4993056;28;20215;-64
2022/12/06 07:56:55;;;;;;;12.97;8.83;;;3.30;99.90;;;-141.84;82.82;18399.56;4993238;28;20259;-63
2022/12/06 07:59:25;;;;;;;13.13;8.60;;;3.30;99.90;;;-141.84;82.29;18383.31;4992985;28;20241;-63
2022/12/06 08:01:54;;;;;;;11.00;8.03;;;3.30;99.90;;;-141.84;81.91;18377.22;4993010;28;20241;-65
2022/12/06 08:04:22;;;;;;;11.57;7.73;;;3.30;99.90;;;-141.84;82.37;18432.09;5001733;28;20655;-63
2022/12/06 08:06:50;;;;;;;10.87;8.10;;;3.30;99.90;;;-141.84;82.76;18425.97;5007216;28;20245;-63
2022/12/06 08:09:18;;;;;;;11.80;8.07;;;3.30;99.90;;;-141.84;82.99;18413.78;4992356;28;20207;-62
2022/12/06 08:11:46;;;;;;;11.10;7.90;;;3.30;99.90;;;-141.84;83.08;18365.03;5012576;28;20249;-62
2022/12/06 08:14:15;;;;;;;11.90;7.70;;;3.20;99.90;;;-141.84;83.03;18399.56;4999441;28;20226;-62
2022/12/06 08:16:44;;;;;;;14.27;8.63;;;3.20;99.90;;;-141.84;82.51;18375.19;5004678;28;20291;-63
2022/12/06 08:19:12;;;;;;;13.53;8.47;;;3.20;99.90;;;-141.84;82.44;18393.47;5012401;28;20230;-62
2022/12/06 08:21:40;;;;;;;16.67;8.83;;;3.30;99.90;;;-141.84;82.72;18407.69;5012497;28;20229;-62
2022/12/06 08:24:09;;;;;;;10.23;7.63;;;3.20;99.90;;;-141.84;81.91;18407.69;5012901;28;20207;-63
2022/12/06 08:26:37;;;;;;;10.27;7.50;;;3.20;99.90;;;-141.84;82.45;18397.53;5012157;28;20234;-63
2022/12/06 08:29:05;;;;;;;11.57;8.30;;;3.30;99.90;;;-141.84;82.91;18409.72;5011758;28;20289;-63
2022/12/06 08:31:34;;;;;;;12.67;8.70;;;3.30;99.90;;;-141.84;82.77;18407.69;5011919;28;20245;-63
2022/12/06 08:34:04;;;;;;;11.67;8.60;;;3.20;99.90;;;-141.84;82.54;18407.69;5012476;28;20259;-63
2022/12/06 08:36:32;;;;;;;10.33;7.90;;;3.30;99.90;;;-141.84;82.30;18413.78;5012425;28;20211;-63
2022/12/06 08:39:00;;;;;;;14.97;9.20;;;3.30;99.90;;;-141.84;82.30;18403.63;5012573;28;20208;-62
2022/12/06 08:44:28;;;;;;;10.40;8.30;;;3.30;99.90;;;-141.84;82.28;18405.66;4969528;28;20231;-64
2022/12/06 08:46:59;;;;;;;12.30;8.27;;;3.30;99.90;;;-141.84;82.65;18387.38;4988630;28;20225;-62
2022/12/06 08:49:30;;;;;;;11.93;8.40;;;3.30;99.90;;;-141.84;82.72;18430.06;4992272;28;20317;-64
2022/12/06 08:52:00;;;;;;;11.90;8.30;;;3.30;99.90;;;-141.84;82.49;18417.84;4991984;28;20240;-64
2022/12/06 08:54:29;;;;;;;9.63;8.47;;;3.40;99.90;;;-141.84;82.28;18432.09;4992260;28;20269;-63
2022/12/06 08:56:57;;;;;;;10.80;8.87;;;3.40;99.90;;;-141.84;82.12;18428.03;4992656;28;20644;-63
2022/12/06 08:59:26;;;;;;;9.30;7.43;;;3.30;99.90;;;-141.84;81.73;18411.75;4992024;28;20240;-63
2022/12/06 09:01:54;;;;;;;10.23;7.20;;;3.40;99.90;;;-141.84;81.30;18423.94;4992158;28;20236;-62
2022/12/06 09:04:22;;;;;;;10.10;8.07;;;3.40;99.90;;;-141.84;81.17;18436.16;4991873;28;20234;-62
2022/12/06 09:06:52;;;;;;;11.60;8.57;;;3.40;99.90;;;-141.84;81.56;18421.91;4996653;28;20235;-63
2022/12/06 09:09:20;;;;;;;10.20;7.73;;;3.40;99.90;;;-141.84;81.42;18434.13;5011482;28;20208;-62
2022/12/06 09:11:50;;;;;;;10.97;7.57;;;3.40;99.90;;;-141.84;80.79;18442.25;5012124;28;20210;-63
2022/12/06 09:14:19;;;;;;;9.20;7.57;;;3.40;99.90;;;-141.84;81.28;18440.22;4998448;28;20620;-62
2022/12/06 09:16:50;;;;;;;11.20;7.47;;;3.40;99.90;;;-141.84;81.34;18411.75;5004547;28;20350;-63
2022/12/06 09:19:19;;;;;;;9.93;7.50;;;3.50;99.90;;;-141.84;81.77;18423.94;5011175;28;20252;-63
2022/12/06 09:21:48;;;;;;;13.67;9.20;;;3.50;99.90;;;-141.84;81.18;18399.56;5011152;28;20295;-63
2022/12/06 09:24:19;;;;;;;11.43;8.00;;;3.50;99.90;;;-141.84;81.54;18458.50;5011407;28;20205;-62
2022/12/06 09:26:47;;;;;;;11.07;9.13;;;3.50;99.90;;;-141.84;81.31;18440.22;5012135;28;20220;-62
2022/12/06 09:29:17;;;;;;;10.57;8.30;;;3.50;99.90;;;-141.84;80.62;18454.44;5010878;28;20601;-63
2022/12/06 09:31:46;;;;;;;9.83;8.30;;;3.50;99.90;;;-141.84;80.32;18482.88;5010959;28;20234;-63
2022/12/06 09:34:15;;;;;;;10.73;8.03;;;3.60;99.90;;;-141.84;80.91;18444.28;5010779;28;20633;-63
2022/12/06 09:36:49;;;;;;;10.23;7.83;;;3.60;99.90;;;-141.84;81.30;18430.06;5011388;28;20233;-63
2022/12/06 09:39:25;;;;;;;10.67;8.30;;;3.60;99.90;;;-141.84;80.68;18470.69;5011051;28;20203;-64
2022/12/06 09:42:46;;;;;;;10.37;7.90;;;3.70;99.90;;;-141.84;80.57;18438.19;5011646;28;20193;-63
2022/12/06 09:45:53;;;;;;;12.27;8.20;;;3.70;99.90;;;-141.84;80.34;18442.25;4964653;28;20227;-62
2022/12/06 09:48:56;;;;;;;10.67;8.40;;;3.70;99.90;;;-141.84;79.54;18464.59;4987335;28;20239;-61
2022/12/06 09:51:46;;;;;;;12.07;8.67;;;3.80;99.90;;;-141.84;80.66;18448.34;4989795;28;20209;-63
2022/12/06 09:54:44;;;;;;;10.70;8.40;;;3.70;99.90;;;-141.84;81.24;18452.41;4991921;28;20226;-64
2022/12/06 09:57:32;;;;;;;11.40;8.73;;;3.70;99.90;;;-141.84;81.74;18421.91;5010912;28;20679;-63
2022/12/06 10:00:06;;;;;;;10.97;8.43;;;3.70;99.90;;;-141.84;81.27;18460.53;5011103;28;20533;-64
2022/12/06 10:03:14;;;;;;;12.00;9.03;;;3.70;99.90;;;-141.84;80.69;18432.09;5011365;28;20224;-63
2022/12/06 10:05:59;;;;;;;11.00;8.07;;;3.70;99.90;;;-141.84;80.50;18432.09;5011104;28;20210;-62
2022/12/06 10:09:03;;;;;;;11.23;8.40;;;3.80;99.90;;;-141.84;80.50;18468.66;5010377;28;20264;-62
2022/12/06 10:12:09;;;;;;;11.30;8.07;;;3.70;99.90;;;-141.84;80.60;18456.47;5009941;28;20278;-60
2022/12/06 10:15:03;;;;;;;9.07;7.37;;;3.80;99.90;;;-141.84;80.51;18460.53;5010280;28;20225;-63
2022/12/06 10:17:53;;;;;;;9.97;7.50;;;3.70;99.90;;;-141.84;81.02;18436.16;4992078;28;20237;-63
2022/12/06 10:20:34;;;;;;;9.40;7.90;;;3.70;99.90;;;-141.84;81.54;18425.97;4991021;28;20234;-64
2022/12/06 10:23:22;;;;;;;10.40;8.63;;;3.70;99.90;;;-141.84;81.17;18419.88;4991138;28;20237;-64
2022/12/06 10:26:07;;;;;;;11.33;8.93;;;3.70;99.90;;;-141.84;81.36;18432.09;4991348;28;20230;-62
2022/12/06 10:28:45;;;;;;;10.70;8.47;;;3.70;99.90;;;-141.84;80.37;18450.38;4991410;28;20239;-63
2022/12/06 10:31:23;;;;;;;10.47;8.63;;;3.70;99.90;;;-141.84;80.09;18456.47;4991194;28;20252;-64
2022/12/06 10:33:58;;;;;;;9.77;7.97;;;3.70;99.90;;;-141.84;80.12;18460.53;4991007;28;20239;-62
2022/12/06 10:36:42;;;;;;;9.67;8.10;;;3.70;99.90;;;-141.84;80.49;18450.38;4990929;28;20596;-62
2022/12/06 10:39:21;;;;;;;9.27;7.90;;;3.60;99.90;;;-141.84;81.33;18495.06;4994807;28;20240;-63
2022/12/06 10:41:59;;;;;;;10.90;8.37;;;3.70;99.90;;;-141.84;79.85;18448.34;4994843;28;20214;-62
2022/12/06 10:44:37;;;;;;;8.70;7.57;;;3.70;99.90;;;-141.84;80.02;18462.56;4994214;28;20219;-63
2022/12/06 10:47:13;;;;;;;9.40;7.93;;;3.80;99.90;;;-141.84;80.00;18476.78;4994391;28;20222;-63
2022/12/06 10:49:55;;;;;;;9.80;8.20;;;3.70;99.90;;;-141.84;80.37;18484.91;4994278;28;20611;-62
2022/12/06 10:52:36;;;;;;;9.87;8.10;;;3.80;99.90;;;-141.84;80.32;18456.47;4994411;28;20613;-63